KRNV

Cleveland Municipal Airport

Cleveland, Mississippi, USA
METAR KRNV 220715Z AUTO 34006KT 10SM SCT050 SCT055 SCT070 25/25 A3002 RMK AO2 T02450245
Observed Flight Rules
Sep-22 @ 07:15 UTC (6 minutes ago) Visual Flight Rules
Wind Visibility Clouds
340° at 6 knots 10 miles
Temperatures Readings
Current 25°C / 77°F
Dewpoint 25°C / 77°F
Humidity 100%
Altimeter 30.02" Hg
Pressure 1017 hPa
Elevation 41
METAR KRNV 220715Z AUTO 34006KT 10SM SCT050 SCT055 SCT070 25/25 A3002 RMK AO2 T02450245
Observed Flight Rules
Sep-22 @ 07:15 UTC
(6 minutes ago)
VFR
Wind Visibility
340° at 6 knots 10 miles
Clouds
Temperature Dewpoint
25°C / 77°F 25°C / 77°F
Humidity Altimeter Pressure
100% 30.02" Hg 1017 hPa